Time;durP1;ratioP1;P1;durP2;ratioP2;P2;SDS_P1;SDS_P2;PMS_P1;PMS_P2;Temp;Humidity;BMP_temperature;BMP_pressure;BME280_temperature;BME280_humidity;BME280_pressure;Samples;Min_cycle;Max_cycle;Signal;HPM_P1;HPM_P2
2021/12/03 00:01:27;;;;;;;9.23;4.53;;;2.00;99.90;;;;;;5070838;28;20096;-91
2021/12/03 00:03:53;;;;;;;5.55;3.35;;;2.00;99.90;;;;;;5070472;28;20032;-91
2021/12/03 00:06:19;;;;;;;8.23;3.35;;;2.00;99.90;;;;;;5072303;28;20115;-92
2021/12/03 00:08:46;;;;;;;6.93;3.47;;;2.00;99.90;;;;;;5070679;28;20123;-92
2021/12/03 00:11:13;;;;;;;11.30;4.78;;;2.00;99.90;;;;;;5070704;28;20115;-91
2021/12/03 00:13:40;;;;;;;9.05;4.60;;;2.00;99.90;;;;;;5070514;28;20098;-91
2021/12/03 00:16:07;;;;;;;8.80;4.40;;;2.00;99.90;;;;;;5070948;28;20021;-91
2021/12/03 00:18:33;;;;;;;6.53;3.42;;;2.00;99.90;;;;;;5070259;28;20075;-91
2021/12/03 00:21:03;;;;;;;6.28;3.90;;;2.00;99.90;;;;;;5071255;28;20028;-91
2021/12/03 00:23:30;;;;;;;5.82;3.38;;;2.00;99.90;;;;;;5071764;28;20166;-90
2021/12/03 00:25:57;;;;;;;4.68;3.33;;;2.00;99.90;;;;;;5071562;28;20589;-91
2021/12/03 00:28:22;;;;;;;5.25;2.90;;;2.00;99.90;;;;;;5072317;28;20028;-91
2021/12/03 00:30:48;;;;;;;4.75;3.42;;;1.90;99.90;;;;;;5073820;28;20044;-92
2021/12/03 00:33:14;;;;;;;5.55;3.05;;;1.90;99.90;;;;;;5061028;28;20029;-90
2021/12/03 00:35:40;;;;;;;5.30;2.92;;;1.90;99.90;;;;;;5054763;28;20082;-90
2021/12/03 00:38:05;;;;;;;4.38;2.78;;;1.90;99.90;;;;;;5054327;28;20437;-90
2021/12/03 00:40:35;;;;;;;3.90;2.78;;;1.90;99.90;;;;;;5053995;28;20400;-91
2021/12/03 00:43:02;;;;;;;5.15;2.95;;;1.90;99.90;;;;;;5054357;28;20066;-91
2021/12/03 00:45:30;;;;;;;3.53;2.53;;;1.90;99.90;;;;;;5054910;28;20119;-90
2021/12/03 00:47:55;;;;;;;2.78;2.47;;;1.90;99.90;;;;;;5054530;28;20067;-90
2021/12/03 00:50:24;;;;;;;3.65;1.90;;;1.90;99.90;;;;;;5054442;28;20056;-90
2021/12/03 00:52:51;;;;;;;2.45;1.83;;;1.90;99.90;;;;;;5054445;28;20071;-90
2021/12/03 00:55:18;;;;;;;4.25;2.28;;;1.90;99.90;;;;;;5057901;28;20043;-91
2021/12/03 00:57:45;;;;;;;3.35;1.65;;;1.90;99.90;;;;;;5058489;28;20025;-91
2021/12/03 01:00:15;;;;;;;1.65;1.55;;;1.90;99.90;;;;;;5058539;28;20028;-91
2021/12/03 01:02:41;;;;;;;2.45;1.58;;;1.90;99.90;;;;;;5058174;28;20109;-90
2021/12/03 01:05:07;;;;;;;3.45;1.40;;;2.00;99.90;;;;;;5058199;28;20032;-90
2021/12/03 01:07:33;;;;;;;3.10;1.45;;;1.90;99.90;;;;;;5058237;28;20086;-89
2021/12/03 01:09:59;;;;;;;1.17;1.08;;;1.90;99.90;;;;;;5057922;28;20474;-90
2021/12/03 01:12:25;;;;;;;2.20;1.33;;;2.00;99.90;;;;;;5057490;28;20040;-90
2021/12/03 01:14:50;;;;;;;2.35;1.33;;;2.00;99.90;;;;;;5057804;28;20028;-89
2021/12/03 01:17:16;;;;;;;1.50;1.40;;;2.00;99.90;;;;;;5075860;28;20121;-90
2021/12/03 01:19:42;;;;;;;2.50;1.33;;;2.00;99.90;;;;;;5058684;28;20050;-90
2021/12/03 01:22:08;;;;;;;1.95;1.52;;;2.00;99.90;;;;;;5057499;28;20062;-90
2021/12/03 01:24:33;;;;;;;2.33;1.25;;;2.00;99.90;;;;;;5058034;28;20024;-90
2021/12/03 01:26:59;;;;;;;1.40;1.25;;;2.00;99.90;;;;;;5057991;28;20028;-91
2021/12/03 01:29:25;;;;;;;1.35;1.20;;;2.10;99.90;;;;;;5057975;28;20021;-90
2021/12/03 01:31:53;;;;;;;2.22;1.38;;;2.10;99.90;;;;;;5065323;28;20045;-91
2021/12/03 01:34:21;;;;;;;1.90;1.15;;;2.10;99.90;;;;;;5074162;28;20059;-90
2021/12/03 01:36:47;;;;;;;1.58;1.00;;;2.10;99.90;;;;;;5073924;28;20024;-91
2021/12/03 01:39:13;;;;;;;2.20;1.20;;;2.10;99.90;;;;;;5074519;28;20073;-90
2021/12/03 01:41:40;;;;;;;1.42;1.10;;;2.20;99.90;;;;;;5074067;28;20021;-91
2021/12/03 01:44:06;;;;;;;1.80;1.40;;;2.20;99.90;;;;;;5074122;28;20081;-91
2021/12/03 01:46:32;;;;;;;1.85;1.02;;;2.20;99.90;;;;;;5074048;28;20032;-91
2021/12/03 01:49:00;;;;;;;1.33;0.98;;;2.20;99.90;;;;;;5074082;28;20032;-91
2021/12/03 01:51:26;;;;;;;0.90;0.90;;;2.30;99.90;;;;;;5074054;28;20107;-91
2021/12/03 01:53:53;;;;;;;1.20;1.10;;;2.30;99.90;;;;;;5073573;28;20033;-92
2021/12/03 01:56:20;;;;;;;0.98;0.90;;;2.30;99.90;;;;;;5073738;28;20043;-90
2021/12/03 01:58:48;;;;;;;2.63;1.30;;;2.30;99.90;;;;;;5073649;28;20428;-91
2021/12/03 02:01:21;;;;;;;0.68;0.68;;;2.30;99.90;;;;;;5073821;28;20029;-91
2021/12/03 02:03:50;;;;;;;1.20;1.10;;;2.30;99.90;;;;;;5073249;28;20040;-90
2021/12/03 02:06:16;;;;;;;1.70;1.00;;;2.30;99.90;;;;;;5073583;28;20021;-90
2021/12/03 02:08:43;;;;;;;2.22;1.20;;;2.30;99.90;;;;;;5073677;28;20089;-92
2021/12/03 02:11:13;;;;;;;1.30;1.20;;;2.30;99.90;;;;;;5075490;28;20031;-92
2021/12/03 02:13:39;;;;;;;2.13;1.00;;;2.30;99.90;;;;;;5078967;28;20005;-91
2021/12/03 02:16:06;;;;;;;0.85;0.85;;;2.30;99.90;;;;;;5096720;28;20619;-91
2021/12/03 02:18:32;;;;;;;1.23;1.10;;;2.40;99.90;;;;;;5095810;28;20023;-91
2021/12/03 02:21:01;;;;;;;0.70;0.70;;;2.30;99.90;;;;;;5088379;28;20055;-91
2021/12/03 02:23:28;;;;;;;1.42;1.10;;;2.40;99.90;;;;;;5088638;28;20039;-93
2021/12/03 02:25:55;;;;;;;1.65;1.35;;;2.40;99.90;;;;;;5085102;28;20032;-91
2021/12/03 02:28:24;;;;;;;0.90;0.80;;;2.30;99.90;;;;;;5082092;28;20029;-91
2021/12/03 02:30:50;;;;;;;1.15;0.82;;;2.30;99.90;;;;;;5076937;28;20037;-91
2021/12/03 02:33:16;;;;;;;0.80;0.80;;;2.40;99.90;;;;;;5060707;28;20098;-92
2021/12/03 02:35:44;;;;;;;2.75;1.08;;;2.40;99.90;;;;;;5059748;28;20055;-91
2021/12/03 02:38:12;;;;;;;4.60;0.90;;;2.40;99.90;;;;;;5058400;28;20036;-90
2021/12/03 02:40:38;;;;;;;1.02;0.57;;;2.40;99.90;;;;;;5058944;28;20028;-91
2021/12/03 02:43:04;;;;;;;1.95;1.00;;;2.40;99.90;;;;;;5058402;28;20021;-91
2021/12/03 02:45:30;;;;;;;1.13;0.80;;;2.40;99.90;;;;;;5058203;28;20036;-91
2021/12/03 02:47:58;;;;;;;1.63;0.65;;;2.50;99.90;;;;;;5057845;28;20077;-92
2021/12/03 02:50:24;;;;;;;1.20;1.10;;;2.40;99.90;;;;;;5057148;28;20033;-92
2021/12/03 02:52:50;;;;;;;2.20;0.82;;;2.50;99.90;;;;;;5056412;28;20170;-92
2021/12/03 02:55:17;;;;;;;1.75;1.10;;;2.50;99.90;;;;;;5056827;28;20490;-91
2021/12/03 02:57:43;;;;;;;1.10;0.70;;;2.50;99.90;;;;;;5056956;28;20032;-92
2021/12/03 03:00:12;;;;;;;0.70;0.70;;;2.50;99.90;;;;;;5056945;28;20028;-92
2021/12/03 03:02:37;;;;;;;0.50;0.50;;;2.50;99.90;;;;;;5057213;28;20020;-92
2021/12/03 03:05:04;;;;;;;2.40;0.80;;;2.50;99.90;;;;;;5056943;28;20039;-92
2021/12/03 03:07:30;;;;;;;0.45;0.45;;;2.50;99.90;;;;;;5056723;28;20032;-90
2021/12/03 03:09:56;;;;;;;0.98;0.60;;;2.50;99.90;;;;;;5056557;28;20025;-92
2021/12/03 03:12:22;;;;;;;0.70;0.70;;;2.50;99.90;;;;;;5056469;28;20219;-92
2021/12/03 03:14:53;;;;;;;0.70;0.60;;;2.50;99.90;;;;;;5056206;28;20021;-92
2021/12/03 03:17:23;;;;;;;1.42;0.70;;;2.50;99.90;;;;;;5056710;28;20025;-92
2021/12/03 03:19:49;;;;;;;0.75;0.70;;;2.50;99.90;;;;;;5056387;28;20024;-91
2021/12/03 03:22:16;;;;;;;0.63;0.43;;;2.50;99.90;;;;;;5056114;28;20115;-92
2021/12/03 03:24:42;;;;;;;0.68;0.50;;;2.50;99.90;;;;;;5056062;28;20139;-91
2021/12/03 03:27:08;;;;;;;0.30;0.30;;;2.60;99.90;;;;;;5055649;28;20024;-92
2021/12/03 03:29:34;;;;;;;0.50;0.50;;;2.50;99.90;;;;;;5056417;28;20021;-92
2021/12/03 03:32:00;;;;;;;0.63;0.40;;;2.60;99.90;;;;;;5062614;28;20489;-91
2021/12/03 03:34:26;;;;;;;0.22;0.22;;;2.50;99.90;;;;;;5072673;28;20036;-92
2021/12/03 03:36:53;;;;;;;0.40;0.40;;;2.60;99.90;;;;;;5072140;28;20029;-90
2021/12/03 03:39:20;;;;;;;0.40;0.40;;;2.50;99.90;;;;;;5072168;28;20115;-91
2021/12/03 03:41:46;;;;;;;0.28;0.28;;;2.50;99.90;;;;;;5072187;28;20431;-92
2021/12/03 03:44:15;;;;;;;0.40;0.40;;;2.50;99.90;;;;;;5074127;28;20024;-92
2021/12/03 03:46:43;;;;;;;1.65;0.32;;;2.50;99.90;;;;;;5074136;28;20496;-90
2021/12/03 03:49:09;;;;;;;0.30;0.30;;;2.60;99.90;;;;;;5075861;28;20507;-91
2021/12/03 03:51:35;;;;;;;0.60;0.60;;;2.60;99.90;;;;;;5073308;28;20064;-90
2021/12/03 03:54:02;;;;;;;0.40;0.40;;;2.60;99.90;;;;;;5071883;28;20035;-91
2021/12/03 03:56:29;;;;;;;1.67;0.50;;;2.60;99.90;;;;;;5072196;28;20063;-92
2021/12/03 03:58:54;;;;;;;0.60;0.60;;;2.60;99.90;;;;;;5072272;28;20044;-92
2021/12/03 04:01:20;;;;;;;0.80;0.80;;;2.60;99.90;;;;;;5071925;28;20052;-92
2021/12/03 04:03:46;;;;;;;0.93;0.80;;;2.60;99.90;;;;;;5072189;28;20085;-92
2021/12/03 04:06:17;;;;;;;0.85;0.85;;;2.60;99.90;;;;;;5072994;28;20028;-91
2021/12/03 04:08:44;;;;;;;1.20;1.10;;;2.60;99.90;;;;;;5073113;28;20036;-91
2021/12/03 04:11:11;;;;;;;2.45;1.05;;;2.70;99.90;;;;;;5088108;28;20032;-91
2021/12/03 04:13:37;;;;;;;1.65;1.42;;;2.60;99.90;;;;;;5090107;28;20024;-90
2021/12/03 04:16:03;;;;;;;1.42;1.27;;;2.60;99.90;;;;;;5088837;28;20150;-91
2021/12/03 04:18:29;;;;;;;2.60;1.45;;;2.70;99.90;;;;;;5075469;28;20032;-92
2021/12/03 04:20:55;;;;;;;2.30;1.83;;;2.70;99.90;;;;;;5072697;28;20028;-91
2021/12/03 04:23:21;;;;;;;2.70;1.95;;;2.60;99.90;;;;;;5080140;28;20032;-90
2021/12/03 04:25:48;;;;;;;2.28;1.20;;;2.70;99.90;;;;;;5075300;28;20020;-91
2021/12/03 04:28:15;;;;;;;2.05;1.55;;;2.70;99.90;;;;;;5071507;28;20052;-91
2021/12/03 04:30:42;;;;;;;1.65;1.33;;;2.70;99.90;;;;;;5071962;28;20115;-92
2021/12/03 04:33:08;;;;;;;7.07;3.03;;;2.70;99.90;;;;;;5071736;28;20044;-91
2021/12/03 04:35:34;;;;;;;3.28;2.55;;;2.70;99.90;;;;;;5069635;28;20059;-91
2021/12/03 04:38:00;;;;;;;5.65;3.20;;;2.70;99.90;;;;;;5070361;28;20056;-90
2021/12/03 04:40:30;;;;;;;5.57;2.95;;;2.70;99.90;;;;;;5071416;28;20027;-93
2021/12/03 04:42:55;;;;;;;4.85;2.97;;;2.70;99.90;;;;;;5070896;28;20021;-91
2021/12/03 04:45:25;;;;;;;5.70;2.40;;;2.70;99.90;;;;;;5071555;28;20477;-90
2021/12/03 04:47:53;;;;;;;3.33;2.10;;;2.70;99.90;;;;;;5071439;28;20394;-90
2021/12/03 04:50:21;;;;;;;4.07;1.80;;;2.70;99.90;;;;;;5071979;28;20512;-91
2021/12/03 04:52:47;;;;;;;4.30;2.17;;;2.70;99.90;;;;;;5072115;28;20553;-91
2021/12/03 04:55:13;;;;;;;4.53;2.22;;;2.70;99.90;;;;;;5071598;28;20024;-90
2021/12/03 04:57:40;;;;;;;5.15;2.30;;;2.70;99.90;;;;;;5071565;28;20032;-90
2021/12/03 05:00:13;;;;;;;3.35;2.40;;;2.70;99.90;;;;;;5071442;28;20024;-91
2021/12/03 05:02:39;;;;;;;3.20;1.45;;;2.70;99.90;;;;;;5071262;28;20028;-91
2021/12/03 05:05:06;;;;;;;4.85;2.72;;;2.70;99.90;;;;;;5071136;28;20386;-90
2021/12/03 05:10:05;;;;;;;4.13;2.78;;;2.70;99.90;;;;;;5072209;28;20115;-90
2021/12/03 05:12:31;;;;;;;5.45;2.13;;;2.70;99.90;;;;;;5071345;28;20041;-90
2021/12/03 05:14:57;;;;;;;3.72;2.42;;;2.70;99.90;;;;;;5071953;28;20020;-91
2021/12/03 05:17:22;;;;;;;3.17;2.10;;;2.80;99.90;;;;;;5073029;28;20524;-90
2021/12/03 05:19:48;;;;;;;2.58;1.60;;;2.80;99.90;;;;;;5074826;28;20028;-90
2021/12/03 05:22:14;;;;;;;3.35;2.65;;;2.80;99.90;;;;;;5080243;28;20175;-91
2021/12/03 05:24:45;;;;;;;1.65;1.35;;;2.80;99.90;;;;;;5083389;28;20025;-91
2021/12/03 05:27:15;;;;;;;;;;;2.80;99.90;;;;;;5080924;28;20112;-91
2021/12/03 05:29:42;;;;;;;2.63;1.90;;;2.80;99.90;;;;;;5079198;28;19912;-91
2021/12/03 05:32:09;;;;;;;2.80;1.80;;;2.80;99.90;;;;;;5072994;28;20075;-91
2021/12/03 05:34:35;;;;;;;1.83;1.73;;;2.80;99.90;;;;;;5071800;28;20028;-92
2021/12/03 05:37:01;;;;;;;2.22;2.03;;;2.80;99.90;;;;;;5071580;28;20036;-92
2021/12/03 05:39:27;;;;;;;3.78;2.90;;;2.90;99.90;;;;;;5073528;28;20059;-91
2021/12/03 05:41:53;;;;;;;3.03;2.05;;;2.90;99.90;;;;;;5074376;28;20060;-91
2021/12/03 05:44:19;;;;;;;2.42;2.22;;;2.90;99.90;;;;;;5074561;28;20546;-91
2021/12/03 05:46:45;;;;;;;3.20;2.30;;;2.90;99.90;;;;;;5074131;28;20682;-91
2021/12/03 05:49:12;;;;;;;3.67;2.40;;;2.90;99.90;;;;;;5075303;28;20058;-91
2021/12/03 05:51:38;;;;;;;3.47;2.47;;;2.90;99.90;;;;;;5075443;28;20040;-92
2021/12/03 05:54:04;;;;;;;3.80;2.90;;;2.90;99.90;;;;;;5075406;28;20421;-91
2021/12/03 05:56:30;;;;;;;5.78;4.28;;;3.00;99.90;;;;;;5075390;28;20028;-91
2021/12/03 05:58:55;;;;;;;6.07;2.70;;;3.00;99.90;;;;;;5075311;28;20020;-91
2021/12/03 06:01:21;;;;;;;4.30;2.45;;;3.00;99.90;;;;;;5075112;28;20036;-92
2021/12/03 06:03:47;;;;;;;4.50;3.53;;;3.00;99.90;;;;;;5075252;28;20024;-91
2021/12/03 06:06:15;;;;;;;4.22;3.30;;;3.00;99.90;;;;;;5074552;28;20373;-91
2021/12/03 06:08:42;;;;;;;6.00;4.05;;;3.00;99.90;;;;;;5074812;28;20056;-91
2021/12/03 06:11:08;;;;;;;5.00;3.70;;;3.10;99.90;;;;;;5074510;28;20025;-91
2021/12/03 06:13:38;;;;;;;6.78;4.97;;;3.10;99.90;;;;;;5074513;28;20062;-91
2021/12/03 06:16:04;;;;;;;;;;;3.10;99.90;;;;;;5075236;28;20456;-91
2021/12/03 06:18:30;;;;;;;7.13;4.03;;;3.10;99.90;;;;;;5082089;28;19908;-91
2021/12/03 06:20:56;;;;;;;6.13;4.00;;;3.20;99.90;;;;;;5076389;28;20091;-92
2021/12/03 06:23:21;;;;;;;7.05;4.10;;;3.20;99.90;;;;;;5074402;28;20033;-90
2021/12/03 06:25:47;;;;;;;6.95;4.15;;;3.20;99.90;;;;;;5074117;28;20474;-91
2021/12/03 06:28:13;;;;;;;8.13;4.80;;;3.20;99.90;;;;;;5074235;28;20036;-92
2021/12/03 06:30:38;;;;;;;6.38;4.43;;;3.20;99.90;;;;;;5074985;28;20036;-92
2021/12/03 06:33:05;;;;;;;6.10;4.13;;;3.30;99.90;;;;;;5074225;28;20078;-91
2021/12/03 06:35:31;;;;;;;9.52;4.68;;;3.20;99.90;;;;;;5074174;28;20094;-93
2021/12/03 06:37:56;;;;;;;11.23;5.20;;;3.30;99.90;;;;;;5073093;28;20435;-92
2021/12/03 06:40:24;;;;;;;8.15;5.25;;;3.30;99.90;;;;;;5073493;28;20029;-91
2021/12/03 06:42:50;;;;;;;9.43;5.55;;;3.30;99.90;;;;;;5073519;28;20398;-92
2021/12/03 06:45:16;;;;;;;6.68;4.55;;;3.30;99.90;;;;;;5073426;28;20033;-92
2021/12/03 06:47:42;;;;;;;7.60;4.75;;;3.40;99.90;;;;;;5073498;28;20135;-92
2021/12/03 06:50:10;;;;;;;9.73;5.68;;;3.40;99.90;;;;;;5073642;28;20025;-91
2021/12/03 06:52:39;;;;;;;13.10;6.97;;;3.40;99.90;;;;;;5073373;28;20035;-91
2021/12/03 06:55:09;;;;;;;15.23;6.90;;;3.50;99.90;;;;;;5072782;28;20021;-91
2021/12/03 06:57:35;;;;;;;17.98;8.05;;;3.50;99.90;;;;;;5072398;28;20024;-92
2021/12/03 07:00:01;;;;;;;14.88;7.50;;;3.60;99.90;;;;;;5072298;28;20037;-92
2021/12/03 07:02:27;;;;;;;12.55;6.97;;;3.60;99.90;;;;;;5073575;28;20028;-91
2021/12/03 07:04:53;;;;;;;12.27;6.60;;;3.70;99.90;;;;;;5072212;28;20020;-92
2021/12/03 07:07:18;;;;;;;13.70;7.40;;;3.70;99.90;;;;;;5071802;28;20052;-93
2021/12/03 07:09:44;;;;;;;14.70;7.00;;;3.70;99.90;;;;;;5072541;28;20024;-93
2021/12/03 07:12:10;;;;;;;14.88;8.18;;;3.80;99.90;;;;;;5072318;28;20585;-93
2021/12/03 07:14:36;;;;;;;12.52;6.97;;;3.80;99.90;;;;;;5073058;28;20071;-92
2021/12/03 07:17:06;;;;;;;12.57;7.43;;;3.80;99.90;;;;;;5072928;28;20020;-93
2021/12/03 07:19:32;;;;;;;14.73;7.40;;;3.90;99.90;;;;;;5070805;28;20021;-93
2021/12/03 07:21:58;;;;;;;15.23;8.35;;;3.90;99.90;;;;;;5072139;28;20047;-93
2021/12/03 07:24:23;;;;;;;19.67;8.02;;;4.00;99.90;;;;;;5072037;28;20020;-93
2021/12/03 07:26:49;;;;;;;12.05;6.70;;;4.00;99.90;;;;;;5071871;28;20454;-93
2021/12/03 07:29:15;;;;;;;6.45;4.05;;;4.10;99.90;;;;;;5071870;28;20462;-92
2021/12/03 07:31:41;;;;;;;8.90;3.72;;;4.20;99.90;;;;;;5071863;28;20044;-92
2021/12/03 07:34:06;;;;;;;6.90;4.60;;;4.30;99.90;;;;;;5072496;28;20059;-93
2021/12/03 07:36:32;;;;;;;6.88;4.82;;;4.50;99.90;;;;;;5071631;28;20382;-94
2021/12/03 07:38:58;;;;;;;8.73;5.60;;;4.70;99.90;;;;;;5072768;28;20025;-93
2021/12/03 07:41:24;;;;;;;9.60;6.55;;;4.80;99.90;;;;;;5071881;28;20017;-93
2021/12/03 07:43:49;;;;;;;9.07;5.40;;;4.90;99.90;;;;;;5071738;28;20086;-93
2021/12/03 07:46:15;;;;;;;11.23;4.03;;;5.00;99.90;;;;;;5071759;28;20100;-93
2021/12/03 07:48:46;;;;;;;10.82;5.00;;;5.10;99.90;;;;;;5073281;28;20033;-93
2021/12/03 07:51:14;;;;;;;9.10;5.70;;;5.20;99.90;;;;;;5073668;28;20428;-93
2021/12/03 07:53:39;;;;;;;8.25;4.88;;;5.30;99.90;;;;;;5073333;28;20111;-93
2021/12/03 07:56:05;;;;;;;10.57;5.57;;;5.40;99.90;;;;;;5072724;28;20497;-94
2021/12/03 07:58:31;;;;;;;10.65;5.72;;;5.40;99.90;;;;;;5073561;28;20029;-92
2021/12/03 08:00:57;;;;;;;12.65;5.55;;;5.50;99.90;;;;;;5073297;28;20027;-93
2021/12/03 08:03:24;;;;;;;14.30;4.95;;;5.60;99.90;;;;;;5073509;28;20052;-92
2021/12/03 08:05:49;;;;;;;8.02;4.97;;;5.60;99.90;;;;;;5078857;28;20044;-92
2021/12/03 08:08:21;;;;;;;10.98;4.45;;;5.70;99.90;;;;;;5091887;28;20035;-91
2021/12/03 08:10:49;;;;;;;13.55;5.90;;;5.80;99.90;;;;;;5074591;28;20056;-94
2021/12/03 08:13:15;;;;;;;10.00;5.55;;;5.80;99.90;;;;;;5076360;28;20772;-92
2021/12/03 08:15:40;;;;;;;6.35;3.60;;;5.80;99.90;;;;;;5077819;28;20025;-92
2021/12/03 08:18:06;;;;;;;6.35;4.20;;;5.90;99.90;;;;;;5075285;28;20060;-93
2021/12/03 08:20:32;;;;;;;7.05;4.18;;;5.90;99.90;;;;;;5074633;28;20025;-92
2021/12/03 08:22:58;;;;;;;10.88;4.68;;;6.00;99.90;;;;;;5073305;28;20436;-93
2021/12/03 08:25:25;;;;;;;6.28;3.20;;;6.00;99.90;;;;;;5073392;28;20116;-93
2021/12/03 08:27:51;;;;;;;5.97;2.75;;;6.10;99.90;;;;;;5078272;28;20025;-92
2021/12/03 08:30:17;;;;;;;6.38;3.42;;;6.10;99.90;;;;;;5079124;28;20024;-92
2021/12/03 08:32:43;;;;;;;6.00;2.58;;;6.10;99.90;;;;;;5077397;28;20048;-91
2021/12/03 08:35:09;;;;;;;5.22;2.60;;;6.10;99.90;;;;;;5074014;28;20028;-91
2021/12/03 08:37:43;;;;;;;5.53;3.00;;;6.10;99.90;;;;;;5074649;28;20120;-91
2021/12/03 08:40:10;;;;;;;2.88;1.55;;;6.10;99.90;;;;;;5073772;28;20044;-90
2021/12/03 08:42:36;;;;;;;5.70;2.78;;;6.10;99.90;;;;;;5072526;28;20077;-91
2021/12/03 08:45:04;;;;;;;5.90;1.73;;;6.00;99.90;;;;;;5073060;28;20557;-91
2021/12/03 08:47:30;;;;;;;8.20;1.90;;;6.00;99.90;;;;;;5072968;28;20013;-91
2021/12/03 08:49:57;;;;;;;10.68;2.97;;;6.00;99.90;;;;;;5072011;28;20036;-91
2021/12/03 08:52:45;;;;;;;3.92;1.40;;;5.90;99.90;;;;;;5071379;28;20037;-91
2021/12/03 08:55:10;;;;;;;13.20;2.35;;;5.90;99.90;;;;;;5071416;28;20070;-92
2021/12/03 08:57:36;;;;;;;15.60;2.30;;;5.90;99.90;;;;;;5071422;28;20020;-91
2021/12/03 09:00:11;;;;;;;23.05;3.28;;;5.90;99.90;;;;;;5071818;28;20016;-91
2021/12/03 09:02:37;;;;;;;18.25;1.70;;;5.90;99.90;;;;;;5071473;28;20501;-92
2021/12/03 09:05:03;;;;;;;19.70;3.08;;;5.90;99.90;;;;;;5071793;28;20032;-91
2021/12/03 09:07:29;;;;;;;11.45;2.03;;;5.90;99.90;;;;;;5074553;28;20028;-91
2021/12/03 09:09:55;;;;;;;11.13;2.03;;;6.00;99.90;;;;;;5080158;28;20111;-90
2021/12/03 09:12:21;;;;;;;10.82;2.10;;;6.00;99.90;;;;;;5074910;28;20505;-91
2021/12/03 09:14:59;;;;;;;12.45;2.20;;;6.00;99.90;;;;;;5078312;28;20117;-90
2021/12/03 09:22:43;;;;;;;11.10;1.35;;;6.10;99.90;;;;;;5081077;28;20025;-90
2021/12/03 09:25:22;;;;;;;15.93;1.60;;;6.20;99.90;;;;;;5076772;28;20039;-92
2021/12/03 09:27:48;;;;;;;16.38;1.80;;;6.20;99.90;;;;;;5077279;28;20046;-92
2021/12/03 09:30:15;;;;;;;10.60;1.60;;;6.30;99.90;;;;;;5075041;28;20478;-89
2021/12/03 09:32:45;;;;;;;10.80;1.90;;;6.30;99.90;;;;;;5075936;28;20048;-90
2021/12/03 09:35:11;;;;;;;13.50;1.67;;;6.30;99.90;;;;;;5072709;28;20028;-90
2021/12/03 09:37:37;;;;;;;15.00;3.15;;;6.40;99.90;;;;;;5074807;28;20035;-91
2021/12/03 09:40:07;;;;;;;11.65;1.65;;;6.40;99.90;;;;;;5074667;28;20412;-90
2021/12/03 09:42:36;;;;;;;17.92;3.22;;;6.50;99.90;;;;;;5075028;28;20031;-91
2021/12/03 09:45:04;;;;;;;7.57;1.88;;;6.50;99.90;;;;;;5075611;28;20032;-90
2021/12/03 09:47:30;;;;;;;13.90;2.45;;;6.50;99.90;;;;;;5075786;28;20020;-91
2021/12/03 09:49:57;;;;;;;15.07;1.73;;;6.50;99.90;;;;;;5075041;28;20033;-91
2021/12/03 09:52:51;;;;;;;15.02;2.28;;;6.60;99.90;;;;;;5074831;28;20064;-91
2021/12/03 09:55:20;;;;;;;19.38;2.80;;;6.50;99.90;;;;;;5075408;28;20024;-90
2021/12/03 09:58:00;;;;;;;6.63;1.48;;;6.60;99.90;;;;;;5073340;28;20107;-91
2021/12/03 10:13:46;;;;;;;14.05;2.00;;;7.00;99.90;;;;;;5077242;28;20496;-92
2021/12/03 10:18:57;;;;;;;18.65;2.65;;;7.20;99.90;;;;;;5077047;28;20111;-88
2021/12/03 10:22:18;;;;;;;8.43;1.77;;;7.40;99.90;;;;;;5075052;28;20040;-91
2021/12/03 10:38:54;;;;;;;9.82;1.98;;;8.10;99.90;;;;;;5076332;28;20042;-90
2021/12/03 10:51:49;;;;;;;19.98;3.50;;;8.30;99.90;;;;;;5075685;28;20028;-90
2021/12/03 10:57:49;;;;;;;14.93;2.05;;;8.50;99.90;;;;;;5075720;28;20093;-90
2021/12/03 11:06:54;;;;;;;15.23;2.78;;;8.50;99.90;;;;;;5045755;28;20117;-89
2021/12/03 11:15:22;;;;;;;13.15;2.53;;;8.20;99.90;;;;;;5076141;28;20450;-90
2021/12/03 11:21:38;;;;;;;18.20;3.47;;;8.00;99.90;;;;;;5075400;28;20354;-90
2021/12/03 11:31:42;;;;;;;15.02;2.42;;;7.90;99.90;;;;;;5075712;28;20031;-89
2021/12/03 11:34:39;;;;;;;14.00;2.08;;;7.90;99.90;;;;;;5077117;28;20025;-89
2021/12/03 12:36:30;;;;;;;19.13;2.03;;;7.80;99.90;;;;;;5022502;28;20078;-91
2021/12/03 13:20:03;;;;;;;13.93;4.10;;;7.60;99.90;;;;;;4976508;28;20089;-89
2021/12/03 14:20:29;;;;;;;19.08;2.95;;;7.40;99.90;;;;;;5069266;28;20059;-89
2021/12/03 14:38:08;;;;;;;15.63;2.42;;;7.20;99.90;;;;;;5071014;28;20039;-88
2021/12/03 14:48:55;;;;;;;13.88;2.35;;;7.20;99.90;;;;;;5044866;28;20041;-88
2021/12/03 14:56:38;;;;;;;18.10;3.25;;;7.10;99.90;;;;;;5065719;28;20395;-89
2021/12/03 14:59:23;;;;;;;17.40;2.60;;;7.10;99.90;;;;;;5058200;28;20028;-90
2021/12/03 15:01:59;;;;;;;17.52;2.60;;;7.10;99.90;;;;;;5043812;28;20100;-90
2021/12/03 15:07:14;;;;;;;16.92;2.90;;;7.10;99.90;;;;;;5075432;28;20492;-90
2021/12/03 15:09:45;;;;;;;16.15;2.92;;;7.00;99.90;;;;;;5049967;28;20025;-90
2021/12/03 15:15:15;;;;;;;18.85;2.90;;;7.00;99.90;;;;;;5073148;28;20540;-90
2021/12/03 16:04:49;;;;;;;10.15;2.35;;;6.80;99.90;;;;;;5074753;28;20111;-91
2021/12/03 16:47:56;;;;;;;14.80;4.20;;;7.20;99.90;;;;;;5011737;28;20065;-91
2021/12/03 16:53:08;;;;;;;22.13;6.63;;;7.10;99.90;;;;;;5013263;28;20049;-90
2021/12/03 16:55:34;;;;;;;19.17;5.97;;;7.10;99.90;;;;;;4995724;28;20056;-90
2021/12/03 16:58:00;;;;;;;26.77;8.50;;;7.00;99.90;;;;;;4993296;28;20495;-90
2021/12/03 17:00:33;;;;;;;18.58;5.63;;;7.00;99.90;;;;;;5009749;28;20120;-89
2021/12/03 17:03:15;;;;;;;23.48;5.78;;;7.00;99.90;;;;;;5010232;28;20594;-91
2021/12/03 17:08:46;;;;;;;30.58;7.63;;;6.90;99.90;;;;;;5009158;28;20022;-90
2021/12/03 17:14:05;;;;;;;19.60;4.38;;;6.90;99.90;;;;;;5007038;28;20503;-91
2021/12/03 17:53:49;;;;;;;19.25;5.18;;;6.70;99.90;;;;;;5068599;28;20036;-91
2021/12/03 17:56:19;;;;;;;15.95;4.18;;;6.70;99.90;;;;;;5046631;28;20514;-90
2021/12/03 18:02:24;;;;;;;14.98;4.18;;;6.60;99.90;;;;;;5076398;22;20072;-90
2021/12/03 18:18:25;;;;;;;21.67;7.20;;;6.50;99.90;;;;;;5061748;28;20450;-90
2021/12/03 18:54:02;;;;;;;32.45;17.73;;;6.60;99.90;;;;;;4994580;28;20042;-90
2021/12/03 18:56:33;;;;;;;34.75;18.05;;;6.60;99.90;;;;;;4974117;28;20512;-90
2021/12/03 18:59:04;;;;;;;40.58;18.77;;;6.60;99.90;;;;;;4974390;28;20084;-90
2021/12/03 19:01:32;;;;;;;38.45;17.42;;;6.70;99.90;;;;;;4991587;28;20042;-90
2021/12/03 19:04:10;;;;;;;38.97;19.35;;;6.70;99.90;;;;;;4973973;28;20038;-89
2021/12/03 19:09:09;;;;;;;43.25;18.80;;;6.70;99.90;;;;;;4989821;28;20043;-90
2021/12/03 19:14:10;;;;;;;42.28;20.45;;;6.70;99.90;;;;;;4991898;28;20108;-90
2021/12/03 19:16:36;;;;;;;39.75;19.45;;;6.70;99.90;;;;;;4992919;28;20037;-88
2021/12/03 19:19:04;;;;;;;41.25;17.88;;;6.70;99.90;;;;;;5031119;28;20116;-90
2021/12/03 19:21:39;;;;;;;37.70;17.85;;;6.70;99.90;;;;;;5031449;28;20021;-89
2021/12/03 19:24:07;;;;;;;42.22;18.45;;;6.70;99.90;;;;;;5034278;28;20120;-89
2021/12/03 19:26:34;;;;;;;40.20;20.10;;;6.70;99.90;;;;;;5034094;28;20022;-89
2021/12/03 19:29:02;;;;;;;33.03;14.93;;;6.60;99.90;;;;;;5034582;28;20120;-90
2021/12/03 19:31:29;;;;;;;38.90;19.45;;;6.60;99.90;;;;;;5034365;28;20026;-89
2021/12/03 19:33:56;;;;;;;48.97;22.50;;;6.60;99.90;;;;;;5055273;28;20028;-89
2021/12/03 19:36:24;;;;;;;44.75;17.58;;;6.60;99.90;;;;;;5039975;28;20025;-89
2021/12/03 19:38:51;;;;;;;41.38;18.92;;;6.60;99.90;;;;;;5036811;28;20035;-89
2021/12/03 19:41:29;;;;;;;32.55;16.63;;;6.60;99.90;;;;;;5036473;28;20024;-90
2021/12/03 19:43:57;;;;;;;38.50;16.77;;;6.60;99.90;;;;;;5036326;28;20052;-89
2021/12/03 19:46:33;;;;;;;37.15;16.92;;;6.50;99.90;;;;;;5037098;28;20029;-89
2021/12/03 19:49:20;;;;;;;26.25;14.18;;;6.50;99.90;;;;;;5036318;28;20025;-90
2021/12/03 19:51:52;;;;;;;28.08;13.18;;;6.50;99.90;;;;;;5031912;28;20030;-90
2021/12/03 19:54:20;;;;;;;33.58;16.23;;;6.50;99.90;;;;;;5033603;28;20028;-89
2021/12/03 19:56:46;;;;;;;28.20;13.98;;;6.50;99.90;;;;;;5032931;28;20223;-89
2021/12/03 19:59:13;;;;;;;31.75;13.18;;;6.50;99.90;;;;;;5035585;28;20024;-90
2021/12/03 20:01:39;;;;;;;39.28;15.38;;;6.40;99.90;;;;;;5035308;28;20054;-91
2021/12/03 20:04:07;;;;;;;35.15;14.77;;;6.40;99.90;;;;;;5035624;28;20039;-90
2021/12/03 20:06:39;;;;;;;40.83;13.85;;;6.40;99.90;;;;;;5035413;28;20112;-91
2021/12/03 20:09:07;;;;;;;33.58;15.10;;;6.50;99.90;;;;;;5032810;28;20589;-89
2021/12/03 20:11:41;;;;;;;36.95;13.75;;;6.40;99.90;;;;;;5034773;28;20043;-87
2021/12/03 20:14:11;;;;;;;28.52;13.60;;;6.40;99.90;;;;;;5032941;28;20032;-89
2021/12/03 20:16:50;;;;;;;33.60;13.23;;;6.40;99.90;;;;;;5034715;28;20039;-89
2021/12/03 20:27:27;;;;;;;21.30;9.13;;;6.30;99.90;;;;;;5048714;28;20055;-89
2021/12/03 20:29:58;;;;;;;22.20;9.52;;;6.30;99.90;;;;;;5034834;28;20047;-89
2021/12/03 20:37:44;;;;;;;22.95;9.45;;;6.20;99.90;;;;;;5047593;28;20112;-89
2021/12/03 20:40:14;;;;;;;24.10;9.50;;;6.20;99.90;;;;;;5034841;28;20100;-89
2021/12/03 21:09:49;;;;;;;23.77;8.23;;;6.00;99.90;;;;;;4975637;28;20037;-90
2021/12/03 21:17:42;;;;;;;47.42;15.43;;;5.90;99.90;;;;;;4976949;28;20015;-91
2021/12/03 21:20:19;;;;;;;21.02;9.57;;;5.90;99.90;;;;;;4976543;28;20053;-91